createdAt,value
2019-03-20T00:01:49.188Z,102424.62
2019-03-20T00:04:17.859Z,102429.99
2019-03-20T00:06:46.535Z,102433.79
2019-03-20T00:09:15.392Z,102432.38
2019-03-20T00:11:44.065Z,102431.84
2019-03-20T00:14:12.672Z,102442.84
2019-03-20T00:16:41.287Z,102438.58
2019-03-20T00:19:09.821Z,102437.78
2019-03-20T00:21:38.482Z,102448.34
2019-03-20T00:24:07.056Z,102445.58
2019-03-20T00:26:36.103Z,102442.64
2019-03-20T00:29:04.760Z,102440.41
2019-03-20T00:31:33.347Z,102448.14
2019-03-20T00:34:02.039Z,102448.02
2019-03-20T00:36:30.600Z,102448.93
2019-03-20T00:38:59.290Z,102452.02
2019-03-20T00:41:27.847Z,102448.26
2019-03-20T00:43:56.427Z,102441.34
2019-03-20T00:46:25.119Z,102441.00
2019-03-20T00:48:53.693Z,102443.09
2019-03-20T00:51:22.284Z,102448.25
2019-03-20T00:53:50.938Z,102446.18
2019-03-20T00:56:19.492Z,102434.84
2019-03-20T00:58:48.164Z,102432.45
2019-03-20T01:01:16.847Z,102431.75
2019-03-20T01:03:45.675Z,102427.81
2019-03-20T01:06:14.434Z,102430.20
2019-03-20T01:08:43.146Z,102431.41
2019-03-20T01:11:11.911Z,102429.37
2019-03-20T01:13:40.493Z,102434.34
2019-03-20T01:16:09.257Z,102443.11
2019-03-20T01:18:38.067Z,102444.98
2019-03-20T01:21:06.814Z,102440.34
2019-03-20T01:23:35.387Z,102441.03
2019-03-20T01:26:04.147Z,102434.16
2019-03-20T01:28:32.832Z,102431.41
2019-03-20T01:31:01.445Z,102432.61
2019-03-20T01:33:30.010Z,102434.98
2019-03-20T01:35:58.614Z,102434.31
2019-03-20T01:38:27.202Z,102436.89
2019-03-20T01:40:55.940Z,102440.67
2019-03-20T01:43:24.489Z,102441.53
2019-03-20T01:45:53.164Z,102442.05
2019-03-20T01:48:21.712Z,102449.53
2019-03-20T01:50:50.379Z,102445.61
2019-03-20T01:53:18.931Z,102448.86
2019-03-20T01:55:47.492Z,102443.55
2019-03-20T01:58:16.039Z,102447.78
2019-03-20T02:00:44.622Z,102446.09
2019-03-20T02:03:13.271Z,102443.33
2019-03-20T02:05:41.925Z,102447.41
2019-03-20T02:08:10.511Z,102447.08
2019-03-20T02:10:39.063Z,102445.29
2019-03-20T02:13:07.608Z,102451.19
2019-03-20T02:15:39.220Z,102447.78
2019-03-20T02:18:06.939Z,102443.63
2019-03-20T02:20:35.588Z,102445.12
2019-03-20T02:23:04.198Z,102447.71
2019-03-20T02:25:32.750Z,102448.27
2019-03-20T02:28:01.494Z,102440.75
2019-03-20T02:30:30.063Z,102443.82
2019-03-20T02:32:58.590Z,102440.05
2019-03-20T02:35:27.272Z,102444.71
2019-03-20T02:37:56.164Z,102441.11
2019-03-20T02:40:24.741Z,102446.34
2019-03-20T02:42:53.270Z,102448.52
2019-03-20T02:45:21.938Z,102450.63
2019-03-20T02:47:50.579Z,102450.59
2019-03-20T02:50:19.244Z,102445.84
2019-03-20T02:52:47.795Z,102455.47
2019-03-20T02:55:16.414Z,102438.30
2019-03-20T02:57:44.956Z,102434.31
2019-03-20T03:00:13.970Z,102438.26
2019-03-20T03:02:42.718Z,102442.82
2019-03-20T03:05:11.676Z,102436.67
2019-03-20T03:07:40.613Z,102439.62
2019-03-20T03:10:09.479Z,102433.80
2019-03-20T03:12:38.243Z,102436.22
2019-03-20T03:15:07.458Z,102440.88
2019-03-20T03:17:36.083Z,102441.55
2019-03-20T03:20:05.156Z,102439.64
2019-03-20T03:22:34.140Z,102450.66
2019-03-20T03:25:03.996Z,102452.05
2019-03-20T03:27:32.639Z,102451.83
2019-03-20T03:30:01.452Z,102453.41
2019-03-20T03:32:30.091Z,102461.66
2019-03-20T03:34:58.688Z,102459.58
2019-03-20T03:37:27.389Z,102463.71
2019-03-20T03:39:55.991Z,102463.85
2019-03-20T03:42:24.594Z,102470.25
2019-03-20T03:44:53.169Z,102465.80
2019-03-20T03:47:21.707Z,102468.53
2019-03-20T03:49:50.397Z,102457.69
2019-03-20T03:52:18.949Z,102466.43
2019-03-20T03:54:47.496Z,102460.89
2019-03-20T03:57:16.237Z,102464.01
2019-03-20T03:59:45.060Z,102469.84
2019-03-20T04:02:13.709Z,102456.16
2019-03-20T04:04:42.466Z,102453.92
2019-03-20T04:07:11.194Z,102461.98
2019-03-20T04:09:39.852Z,102459.59
2019-03-20T04:12:08.400Z,102466.95
2019-03-20T04:14:37.154Z,102462.34
2019-03-20T04:17:20.215Z,102473.45
2019-03-20T04:19:49.000Z,102472.92
2019-03-20T04:22:17.639Z,102472.53
2019-03-20T04:24:46.393Z,102464.98
2019-03-20T04:27:15.164Z,102457.09
2019-03-20T04:29:43.848Z,102447.02
2019-03-20T04:32:12.404Z,102460.06
2019-03-20T04:34:40.971Z,102462.30
2019-03-20T04:37:09.514Z,102461.06
2019-03-20T04:39:38.054Z,102465.90
2019-03-20T04:42:06.753Z,102458.77
2019-03-20T04:44:35.313Z,102466.26
2019-03-20T04:47:03.986Z,102467.72
2019-03-20T04:49:32.623Z,102469.97
2019-03-20T04:52:01.178Z,102471.19
2019-03-20T04:54:29.731Z,102461.63
2019-03-20T04:56:58.483Z,102453.75
2019-03-20T04:59:27.037Z,102447.73
2019-03-20T05:01:55.593Z,102455.62
2019-03-20T05:04:24.156Z,102455.45
2019-03-20T05:06:58.932Z,102462.64
2019-03-20T05:09:23.267Z,102462.59
2019-03-20T05:11:51.859Z,102464.31
2019-03-20T05:14:20.375Z,102463.92
2019-03-20T05:16:48.921Z,102469.95
2019-03-20T05:19:17.570Z,102478.51
2019-03-20T05:21:46.119Z,102475.92
2019-03-20T05:24:14.684Z,102471.81
2019-03-20T05:26:43.279Z,102479.38
2019-03-20T05:29:11.928Z,102485.70
2019-03-20T05:31:40.477Z,102480.75
2019-03-20T05:34:09.036Z,102489.03
2019-03-20T05:36:37.583Z,102484.47
2019-03-20T05:39:06.698Z,102480.19
2019-03-20T05:41:35.264Z,102475.41
2019-03-20T05:44:03.893Z,102491.23
2019-03-20T05:46:32.444Z,102488.97
2019-03-20T05:49:01.279Z,102493.02
2019-03-20T05:51:29.839Z,102491.13
2019-03-20T05:53:58.391Z,102501.09
2019-03-20T05:56:26.973Z,102501.05
2019-03-20T05:58:55.510Z,102498.23
2019-03-20T06:01:24.123Z,102503.62
2019-03-20T06:03:52.700Z,102501.58
2019-03-20T06:06:21.369Z,102508.40
2019-03-20T06:08:49.903Z,102513.65
2019-03-20T06:11:18.456Z,102508.58
2019-03-20T06:13:47.003Z,102508.72
2019-03-20T06:16:15.663Z,102511.69
2019-03-20T06:18:44.426Z,102511.33
2019-03-20T06:21:13.079Z,102508.61
2019-03-20T06:23:41.620Z,102506.77
2019-03-20T06:26:10.411Z,102514.91
2019-03-20T06:28:38.941Z,102511.86
2019-03-20T06:31:07.530Z,102520.73
2019-03-20T06:33:36.239Z,102521.42
2019-03-20T06:36:04.917Z,102525.56
2019-03-20T06:38:36.495Z,102526.84
2019-03-20T06:41:05.058Z,102522.77
2019-03-20T06:43:33.582Z,102532.06
2019-03-20T06:46:02.354Z,102533.64
2019-03-20T06:48:31.156Z,102532.59
2019-03-20T06:50:59.793Z,102529.54
2019-03-20T06:53:28.339Z,102528.88
2019-03-20T06:55:56.915Z,102526.60
2019-03-20T06:58:25.467Z,102542.04
2019-03-20T07:01:26.384Z,102541.87
2019-03-20T07:04:26.488Z,102546.77
2019-03-20T07:07:03.577Z,102545.84
2019-03-20T07:10:29.710Z,102540.59
2019-03-20T07:12:58.266Z,102546.98
2019-03-20T07:15:26.822Z,102543.48
2019-03-20T07:17:55.468Z,102538.79
2019-03-20T07:20:24.008Z,102539.33
2019-03-20T07:22:52.761Z,102542.16
2019-03-20T07:25:21.290Z,102538.42
2019-03-20T07:27:49.955Z,102534.59
2019-03-20T07:30:18.615Z,102543.43
2019-03-20T07:32:47.261Z,102545.86
2019-03-20T07:35:15.794Z,102546.98
2019-03-20T07:37:55.316Z,102541.94
2019-03-20T07:40:15.236Z,102547.98
2019-03-20T07:42:43.832Z,102544.95
2019-03-20T07:45:12.690Z,102552.61
2019-03-20T07:47:41.226Z,102556.50
2019-03-20T07:50:09.976Z,102558.63
2019-03-20T07:52:38.554Z,102559.48
2019-03-20T07:55:07.310Z,102556.17
2019-03-20T07:57:36.057Z,102554.75
2019-03-20T08:00:06.601Z,102556.23
2019-03-20T08:02:35.338Z,102559.52
2019-03-20T08:05:04.676Z,102555.58
2019-03-20T08:07:33.254Z,102560.28
2019-03-20T08:10:01.945Z,102568.80
2019-03-20T08:12:30.600Z,102573.41
2019-03-20T08:14:59.210Z,102574.04
2019-03-20T08:17:27.877Z,102577.57
2019-03-20T08:19:56.433Z,102572.34
2019-03-20T08:22:25.006Z,102574.89
2019-03-20T08:24:55.683Z,102578.56
2019-03-20T08:27:24.012Z,102580.62
2019-03-20T08:29:52.594Z,102580.52
2019-03-20T08:32:21.158Z,102571.55
2019-03-20T08:34:49.700Z,102571.46
2019-03-20T08:37:18.273Z,102573.19
2019-03-20T08:39:46.804Z,102572.51
2019-03-20T08:42:15.562Z,102573.91
2019-03-20T08:44:44.113Z,102579.06
2019-03-20T08:47:12.665Z,102580.59
2019-03-20T08:49:41.308Z,102584.61
2019-03-20T08:52:10.312Z,102584.97
2019-03-20T08:54:38.842Z,102589.09
2019-03-20T08:57:07.408Z,102584.42
2019-03-20T08:59:35.963Z,102592.75
2019-03-20T09:02:04.616Z,102596.39
2019-03-20T09:04:35.638Z,102595.14
2019-03-20T09:07:03.713Z,102604.21
2019-03-20T09:09:32.233Z,102598.09
2019-03-20T09:12:00.796Z,102603.46
2019-03-20T09:14:29.348Z,102603.77
2019-03-20T09:16:57.914Z,102612.92
2019-03-20T09:19:26.583Z,102601.92
2019-03-20T09:21:55.245Z,102606.41
2019-03-20T09:24:23.892Z,102605.86
2019-03-20T09:26:52.552Z,102614.31
2019-03-20T09:29:21.288Z,102611.34
2019-03-20T09:31:50.022Z,102622.85
2019-03-20T09:34:18.620Z,102622.89
2019-03-20T09:36:47.307Z,102615.69
2019-03-20T09:39:15.846Z,102622.08
2019-03-20T09:41:44.400Z,102613.27
2019-03-20T09:44:13.239Z,102618.34
2019-03-20T09:46:41.874Z,102617.58
2019-03-20T09:49:10.655Z,102615.43
2019-03-20T09:51:39.238Z,102614.70
2019-03-20T09:54:07.795Z,102618.74
2019-03-20T09:56:36.481Z,102617.73
2019-03-20T09:59:05.164Z,102615.48
2019-03-20T10:01:33.723Z,102615.75
2019-03-20T10:04:02.376Z,102619.73
2019-03-20T10:06:31.066Z,102611.98
2019-03-20T10:09:01.911Z,102617.73
2019-03-20T10:11:30.266Z,102617.18
2019-03-20T10:13:58.938Z,102620.77
2019-03-20T10:16:27.589Z,102620.61
2019-03-20T10:18:56.233Z,102613.53
2019-03-20T10:21:24.791Z,102622.91
2019-03-20T10:23:53.368Z,102620.53
2019-03-20T10:26:21.907Z,102613.95
2019-03-20T10:28:50.501Z,102616.78
2019-03-20T10:31:19.134Z,102612.31
2019-03-20T10:33:47.712Z,102612.98
2019-03-20T10:36:16.261Z,102617.12
2019-03-20T10:38:44.840Z,102611.95
2019-03-20T10:41:13.348Z,102608.95
2019-03-20T10:43:41.956Z,102600.50
2019-03-20T10:46:10.585Z,102598.72
2019-03-20T10:48:39.242Z,102602.25
2019-03-20T10:51:08.072Z,102597.14
2019-03-20T10:53:36.612Z,102606.30
2019-03-20T10:56:05.389Z,102599.79
2019-03-20T10:58:33.969Z,102601.74
2019-03-20T11:01:02.823Z,102604.62
2019-03-20T11:03:31.458Z,102608.09
2019-03-20T11:06:00.029Z,102609.37
2019-03-20T11:08:28.676Z,102615.38
2019-03-20T11:10:57.307Z,102614.78
2019-03-20T11:13:25.921Z,102606.09
2019-03-20T11:15:54.705Z,102617.25
2019-03-20T11:18:23.259Z,102609.52
2019-03-20T11:20:53.614Z,102615.41
2019-03-20T11:23:22.516Z,102620.56
2019-03-20T11:25:51.057Z,102616.00
2019-03-20T11:28:19.725Z,102621.52
2019-03-20T11:30:48.267Z,102621.23
2019-03-20T11:33:16.826Z,102615.44
2019-03-20T11:35:45.493Z,102615.68
2019-03-20T11:38:14.180Z,102625.24
2019-03-20T11:40:42.842Z,102621.22
2019-03-20T11:43:11.625Z,102622.16
2019-03-20T11:45:40.611Z,102628.02
2019-03-20T11:48:09.466Z,102620.80
2019-03-20T11:50:38.234Z,102621.05
2019-03-20T11:53:06.980Z,102625.05
2019-03-20T11:55:35.741Z,102616.67
2019-03-20T11:58:04.718Z,102616.15
2019-03-20T12:00:33.583Z,102619.32
2019-03-20T12:03:02.524Z,102614.36
2019-03-20T12:05:31.184Z,102619.23
2019-03-20T12:07:59.829Z,102621.16
2019-03-20T12:10:28.623Z,102610.20
2019-03-20T12:12:57.311Z,102625.02
2019-03-20T12:15:26.357Z,102622.30
2019-03-20T12:17:54.901Z,102628.65
2019-03-20T12:20:24.040Z,102630.02
2019-03-20T12:22:53.063Z,102637.52
2019-03-20T12:25:23.864Z,102635.23
2019-03-20T12:27:52.521Z,102634.89
2019-03-20T12:30:22.874Z,102638.57
2019-03-20T12:32:51.623Z,102634.14
2019-03-20T12:35:20.323Z,102633.22
2019-03-20T12:37:49.155Z,102641.09
2019-03-20T12:40:20.114Z,102641.55
2019-03-20T12:42:48.886Z,102644.09
2019-03-20T12:45:18.785Z,102632.09
2019-03-20T12:47:47.373Z,102618.52
2019-03-20T12:50:16.203Z,102615.09
2019-03-20T12:52:44.868Z,102619.45
2019-03-20T12:55:13.885Z,102624.80
2019-03-20T12:57:42.542Z,102622.98
2019-03-20T13:00:13.754Z,102623.73
2019-03-20T13:02:42.545Z,102624.23
2019-03-20T13:05:12.132Z,102632.83
2019-03-20T13:07:40.837Z,102629.15
2019-03-20T13:10:11.399Z,102621.26
2019-03-20T13:12:40.097Z,102630.58
2019-03-20T13:15:11.624Z,102619.66
2019-03-20T13:17:40.384Z,102624.11
2019-03-20T13:20:09.281Z,102622.34
2019-03-20T13:22:38.064Z,102621.83
2019-03-20T13:25:07.912Z,102617.30
2019-03-20T13:27:36.713Z,102613.48
2019-03-20T13:30:19.733Z,102620.30
2019-03-20T13:32:40.543Z,102617.34
2019-03-20T13:35:09.344Z,102617.20
2019-03-20T13:37:38.113Z,102623.91
2019-03-20T13:40:14.274Z,102632.13
2019-03-20T13:42:37.493Z,102634.21
2019-03-20T13:45:08.700Z,102633.48
2019-03-20T13:47:37.265Z,102636.16
2019-03-20T13:50:07.450Z,102638.28
2019-03-20T13:52:36.097Z,102634.28
2019-03-20T13:55:05.095Z,102637.21
2019-03-20T13:57:33.726Z,102629.97
2019-03-20T14:00:05.052Z,102637.81
2019-03-20T14:02:33.641Z,102638.70
2019-03-20T14:05:02.650Z,102640.11
2019-03-20T14:07:31.310Z,102639.21
2019-03-20T14:09:59.991Z,102639.16
2019-03-20T14:12:28.535Z,102641.27
2019-03-20T14:14:57.116Z,102635.45
2019-03-20T14:17:25.900Z,102632.09
2019-03-20T14:19:54.627Z,102627.73
2019-03-20T14:22:23.190Z,102628.36
2019-03-20T14:24:51.869Z,102629.91
2019-03-20T14:27:20.555Z,102624.11
2019-03-20T14:29:49.185Z,102621.58
2019-03-20T14:32:17.804Z,102623.42
2019-03-20T14:34:46.345Z,102615.06
2019-03-20T14:37:14.895Z,102612.67
2019-03-20T14:39:43.614Z,102613.00
2019-03-20T14:42:12.397Z,102616.30
2019-03-20T14:44:40.931Z,102620.92
2019-03-20T14:47:09.525Z,102619.56
2019-03-20T14:49:38.171Z,102616.13
2019-03-20T14:52:06.834Z,102614.09
2019-03-20T14:54:35.425Z,102617.38
2019-03-20T14:57:04.206Z,102613.61
2019-03-20T14:59:32.850Z,102615.12
2019-03-20T15:02:01.552Z,102614.31
2019-03-20T15:04:30.097Z,102615.09
2019-03-20T15:06:58.756Z,102615.47
2019-03-20T15:09:27.312Z,102616.98
2019-03-20T15:11:55.902Z,102607.88
2019-03-20T15:14:24.448Z,102608.20
2019-03-20T15:16:53.175Z,102605.31
2019-03-20T15:19:21.943Z,102612.00
2019-03-20T15:21:50.518Z,102606.45
2019-03-20T15:24:19.189Z,102602.09
2019-03-20T15:26:47.740Z,102603.27
2019-03-20T15:29:16.289Z,102604.98
2019-03-20T15:31:44.871Z,102606.83
2019-03-20T15:34:13.420Z,102598.12
2019-03-20T15:36:41.998Z,102601.85
2019-03-20T15:39:10.544Z,102591.06
2019-03-20T15:41:39.127Z,102596.49
2019-03-20T15:44:07.777Z,102595.58
2019-03-20T15:46:36.369Z,102597.67
2019-03-20T15:49:05.107Z,102602.80
2019-03-20T15:51:33.876Z,102598.69
2019-03-20T15:54:02.660Z,102598.86
2019-03-20T15:56:31.445Z,102593.64
2019-03-20T15:58:59.972Z,102592.05
2019-03-20T16:01:28.575Z,102596.08
2019-03-20T16:03:57.119Z,102593.23
2019-03-20T16:06:25.704Z,102590.52
2019-03-20T16:08:56.807Z,102590.03
2019-03-20T16:11:24.757Z,102590.95
2019-03-20T16:13:53.658Z,102597.99
2019-03-20T16:16:22.268Z,102589.20
2019-03-20T16:18:50.986Z,102589.63
2019-03-20T16:21:19.748Z,102597.18
2019-03-20T16:23:48.327Z,102598.17
2019-03-20T16:26:16.982Z,102596.78
2019-03-20T16:28:45.526Z,102593.35
2019-03-20T16:31:14.104Z,102595.99
2019-03-20T16:33:42.658Z,102600.83
2019-03-20T16:36:11.235Z,102599.73
2019-03-20T16:38:40.081Z,102601.12
2019-03-20T16:41:16.372Z,102602.13
2019-03-20T16:43:39.471Z,102606.25
2019-03-20T16:46:08.238Z,102603.61
2019-03-20T16:48:36.820Z,102602.21
2019-03-20T16:51:05.587Z,102611.75
2019-03-20T16:53:34.290Z,102606.80
2019-03-20T16:56:03.064Z,102601.28
2019-03-20T16:58:31.656Z,102600.28
2019-03-20T17:01:00.246Z,102603.61
2019-03-20T17:03:28.792Z,102600.34
2019-03-20T17:05:57.529Z,102607.96
2019-03-20T17:08:26.349Z,102603.06
2019-03-20T17:10:55.067Z,102612.94
2019-03-20T17:13:23.820Z,102614.30
2019-03-20T17:15:52.593Z,102619.13
2019-03-20T17:18:21.151Z,102612.58
2019-03-20T17:20:49.969Z,102617.37
2019-03-20T17:23:18.655Z,102615.18
2019-03-20T17:25:47.217Z,102618.66
2019-03-20T17:28:15.821Z,102614.33
2019-03-20T17:30:44.629Z,102618.58
2019-03-20T17:33:13.181Z,102618.12
2019-03-20T17:35:41.845Z,102611.84
2019-03-20T17:38:10.542Z,102610.14
2019-03-20T17:40:39.287Z,102618.98
2019-03-20T17:43:08.083Z,102609.58
2019-03-20T17:45:36.858Z,102608.30
2019-03-20T17:48:05.611Z,102605.20
2019-03-20T17:50:34.407Z,102612.92
2019-03-20T17:53:03.441Z,102611.27
2019-03-20T17:55:32.192Z,102616.87
2019-03-20T17:58:01.162Z,102623.02
2019-03-20T18:00:40.758Z,102625.78
2019-03-20T18:03:09.501Z,102624.22
2019-03-20T18:05:38.613Z,102633.02
2019-03-20T18:08:07.447Z,102630.58
2019-03-20T18:10:36.198Z,102629.97
2019-03-20T18:13:05.148Z,102632.99
2019-03-20T18:15:34.425Z,102634.97
2019-03-20T18:18:03.567Z,102632.98
2019-03-20T18:20:32.484Z,102638.26
2019-03-20T18:23:01.161Z,102641.11
2019-03-20T18:25:29.944Z,102637.00
2019-03-20T18:27:58.668Z,102644.42
2019-03-20T18:30:27.775Z,102648.13
2019-03-20T18:32:57.203Z,102647.23
2019-03-20T18:35:26.016Z,102652.41
2019-03-20T18:37:54.779Z,102651.85
2019-03-20T18:40:23.768Z,102653.30
2019-03-20T18:42:52.611Z,102660.73
2019-03-20T18:45:21.554Z,102659.52
2019-03-20T18:47:50.414Z,102668.34
2019-03-20T18:50:19.497Z,102671.73
2019-03-20T18:52:48.498Z,102667.20
2019-03-20T18:55:17.900Z,102669.38
2019-03-20T18:57:46.833Z,102664.46
2019-03-20T19:00:17.606Z,102669.84
2019-03-20T19:02:46.376Z,102673.05
2019-03-20T19:05:18.211Z,102665.36
2019-03-20T19:07:46.870Z,102674.72
2019-03-20T19:10:15.740Z,102674.22
2019-03-20T19:12:44.487Z,102680.86
2019-03-20T19:15:13.769Z,102682.25
2019-03-20T19:17:42.446Z,102685.26
2019-03-20T19:20:11.282Z,102693.20
2019-03-20T19:22:40.170Z,102690.84
2019-03-20T19:25:10.470Z,102698.03
2019-03-20T19:27:39.148Z,102695.33
2019-03-20T19:30:11.719Z,102705.20
2019-03-20T19:32:40.429Z,102706.26
2019-03-20T19:35:09.518Z,102709.80
2019-03-20T19:37:38.204Z,102704.03
2019-03-20T19:40:06.981Z,102712.06
2019-03-20T19:42:35.796Z,102708.09
2019-03-20T19:45:05.375Z,102710.67
2019-03-20T19:50:14.849Z,102700.06
2019-03-20T19:52:43.477Z,102704.67
2019-03-20T19:55:12.227Z,102707.65
2019-03-20T19:57:40.968Z,102700.80
2019-03-20T20:00:12.187Z,102702.31
2019-03-20T20:02:40.925Z,102704.78
2019-03-20T20:05:15.725Z,102698.47
2019-03-20T20:07:40.346Z,102702.84
2019-03-20T20:10:09.184Z,102705.17
2019-03-20T20:12:37.737Z,102691.69
2019-03-20T20:15:09.736Z,102694.91
2019-03-20T20:17:38.350Z,102697.67
2019-03-20T20:20:09.343Z,102706.77
2019-03-20T20:22:37.946Z,102702.39
2019-03-20T20:25:06.687Z,102705.38
2019-03-20T20:27:35.316Z,102702.49
2019-03-20T20:30:04.305Z,102707.95
2019-03-20T20:32:32.857Z,102703.89
2019-03-20T20:35:01.661Z,102698.32
2019-03-20T20:37:30.165Z,102699.73
2019-03-20T20:39:58.693Z,102701.66
2019-03-20T20:42:27.244Z,102701.98
2019-03-20T20:44:55.759Z,102701.75
2019-03-20T20:47:24.263Z,102699.82
2019-03-20T20:49:52.798Z,102702.60
2019-03-20T20:52:21.343Z,102698.61
2019-03-20T20:54:49.948Z,102697.97
2019-03-20T20:57:18.626Z,102698.33
2019-03-20T20:59:47.350Z,102694.80
2019-03-20T21:02:15.882Z,102693.85
2019-03-20T21:04:44.450Z,102694.05
2019-03-20T21:07:13.120Z,102691.47
2019-03-20T21:09:47.742Z,102694.91
2019-03-20T21:12:17.041Z,102692.25
2019-03-20T21:14:45.602Z,102690.31
2019-03-20T21:17:20.836Z,102694.37
2019-03-20T21:19:50.008Z,102696.62
2019-03-20T21:23:16.095Z,102689.91
2019-03-20T21:25:45.175Z,102694.60
2019-03-20T21:28:42.447Z,102700.27
2019-03-20T21:31:24.636Z,102700.05
2019-03-20T21:34:33.649Z,102698.42
2019-03-20T21:37:40.326Z,102697.22
2019-03-20T21:40:10.876Z,102696.45
2019-03-20T21:43:07.664Z,102703.23
2019-03-20T21:46:17.582Z,102705.63
2019-03-20T21:48:46.729Z,102697.63
2019-03-20T21:51:16.819Z,102701.64
2019-03-20T21:54:37.376Z,102696.23
2019-03-20T21:57:12.214Z,102705.56
2019-03-20T22:00:04.762Z,102699.31
2019-03-20T22:02:43.851Z,102704.89
2019-03-20T22:05:23.331Z,102700.55
2019-03-20T22:07:52.756Z,102703.11
2019-03-20T22:11:05.229Z,102708.77
2019-03-20T22:13:46.752Z,102699.70
2019-03-20T22:16:53.286Z,102693.05
2019-03-20T22:20:12.697Z,102699.92
2019-03-20T22:23:23.366Z,102702.59
2019-03-20T22:25:59.954Z,102707.53
2019-03-20T22:29:20.796Z,102710.98
2019-03-20T22:32:42.871Z,102704.65
2019-03-20T22:35:40.261Z,102707.91
2019-03-20T22:38:18.324Z,102704.77
2019-03-20T22:41:23.576Z,102710.06
2019-03-20T22:43:56.608Z,102707.38
2019-03-20T22:47:18.315Z,102701.64
2019-03-20T22:50:37.152Z,102699.23
2019-03-20T22:54:12.083Z,102701.45
2019-03-20T22:57:17.396Z,102706.55
2019-03-20T22:59:46.531Z,102712.69
2019-03-20T23:02:20.273Z,102710.83
2019-03-20T23:04:52.829Z,102717.76
2019-03-20T23:07:22.011Z,102712.84
2019-03-20T23:09:51.178Z,102717.44
2019-03-20T23:12:20.294Z,102711.64
2019-03-20T23:14:49.848Z,102712.84
2019-03-20T23:17:19.550Z,102710.92
2019-03-20T23:19:50.034Z,102717.70
2019-03-20T23:22:19.229Z,102723.25
2019-03-20T23:24:48.269Z,102728.52
2019-03-20T23:27:21.133Z,102720.94
2019-03-20T23:29:50.232Z,102715.34
2019-03-20T23:32:19.388Z,102717.72
2019-03-20T23:34:48.436Z,102709.18
2019-03-20T23:37:17.522Z,102715.53
2019-03-20T23:39:46.573Z,102715.98
2019-03-20T23:42:15.629Z,102724.09
2019-03-20T23:44:44.703Z,102718.02
2019-03-20T23:47:13.744Z,102717.74
2019-03-20T23:49:42.783Z,102716.08
2019-03-20T23:52:11.851Z,102717.48
2019-03-20T23:54:59.230Z,102732.48
2019-03-20T23:57:28.326Z,102725.36
